Main page
Satellite images Climate Cyclones Lightning AirportsFAQ Languages Contact Newsletter About
Weather : Europe Africa North America South America Asia Australia-Oceania Others

mandalay-mm, Mandalay, Mandalay International Airport

48042

latitude: , longitude: Myanmar, elevation: 21-59N m


METAR: VYMD 101030Z 14007G18KT 6000 BKN018 FEW020CB BKN100 34/24 Q1001